Time,TemperatureF,DewpointF,PressureIn,WindDirection,WindDirectionDegrees,WindSpeedMPH,WindSpeedGustMPH,Humidity,HourlyPrecipIn,Conditions,Clouds,dailyrainin,SoftwareType,DateUTC
2013-08-13 00:05:00,56.8,50.4,29.98,NW,309,0.0,0.0,79,0.00,,,0.00,Wunderground v.1.15,2013-08-13 07:05:00,
2013-08-13 00:10:00,56.6,50.2,29.98,NW,309,0.0,0.0,79,0.00,,,0.00,Wunderground v.1.15,2013-08-13 07:10:00,
2013-08-13 00:15:00,56.4,50.3,29.98,NNW,338,0.0,0.0,80,0.00,,,0.00,Wunderground v.1.15,2013-08-13 07:15:00,
2013-08-13 00:25:00,56.0,50.3,29.98,NNW,338,0.0,0.0,81,0.00,,,0.00,Wunderground v.1.15,2013-08-13 07:25:00,
2013-08-13 00:30:00,55.8,50.4,29.98,NNW,338,0.0,0.0,82,0.00,,,0.00,Wunderground v.1.15,2013-08-13 07:30:00,
2013-08-13 00:35:00,55.5,50.1,29.98,NNW,338,0.0,0.0,82,0.00,,,0.00,Wunderground v.1.15,2013-08-13 07:35:00,
2013-08-13 00:40:00,55.3,50.2,29.98,NNW,338,0.0,0.0,83,0.00,,,0.00,Wunderground v.1.15,2013-08-13 07:40:00,
2013-08-13 00:45:00,55.0,50.3,29.98,NNW,338,0.0,0.0,84,0.00,,,0.00,Wunderground v.1.15,2013-08-13 07:45:00,
2013-08-13 00:50:00,54.8,50.4,29.98,NNW,338,0.0,0.0,85,0.00,,,0.00,Wunderground v.1.15,2013-08-13 07:50:00,
2013-08-13 01:00:00,54.5,50.4,29.98,NNW,338,0.0,0.0,86,0.00,,,0.00,Wunderground v.1.15,2013-08-13 08:00:00,
2013-08-13 01:05:00,54.4,50.3,29.98,NNW,338,0.0,0.0,86,0.00,,,0.00,Wunderground v.1.15,2013-08-13 08:05:00,
2013-08-13 01:10:00,54.2,50.1,29.98,NNW,338,0.0,0.0,86,0.00,,,0.00,Wunderground v.1.15,2013-08-13 08:10:00,
2013-08-13 01:15:00,54.0,50.2,29.97,NNW,338,0.0,0.0,87,0.00,,,0.00,Wunderground v.1.15,2013-08-13 08:15:00,
2013-08-13 01:20:00,53.9,50.1,29.97,NNW,338,0.0,0.0,87,0.00,,,0.00,Wunderground v.1.15,2013-08-13 08:20:00,
2013-08-13 01:25:00,53.7,49.9,29.97,NNW,338,0.0,0.0,87,0.00,,,0.00,Wunderground v.1.15,2013-08-13 08:25:00,
2013-08-13 01:35:00,53.5,50.0,29.97,NNW,338,0.0,0.0,88,0.00,,,0.00,Wunderground v.1.15,2013-08-13 08:35:00,
2013-08-13 01:40:00,53.6,50.1,29.97,NNW,338,0.0,0.0,88,0.00,,,0.00,Wunderground v.1.15,2013-08-13 08:40:00,
2013-08-13 01:45:00,53.7,50.2,29.97,NNW,338,0.0,0.0,88,0.00,,,0.00,Wunderground v.1.15,2013-08-13 08:45:00,
2013-08-13 01:50:00,53.7,50.2,29.97,NNW,338,0.0,0.0,88,0.00,,,0.00,Wunderground v.1.15,2013-08-13 08:50:00,
2013-08-13 01:55:00,53.7,50.2,29.97,NNW,338,0.0,0.0,88,0.00,,,0.00,Wunderground v.1.15,2013-08-13 08:55:00,
2013-08-13 02:00:00,54.0,50.2,29.97,NNW,338,0.0,0.0,87,0.00,,,0.00,Wunderground v.1.15,2013-08-13 09:00:00,
2013-08-13 02:10:00,55.1,51.0,29.97,WNW,296,0.0,0.0,86,0.00,,,0.00,Wunderground v.1.15,2013-08-13 09:10:00,
2013-08-13 02:15:00,55.3,50.5,29.97,WNW,296,0.0,0.0,84,0.00,,,0.00,Wunderground v.1.15,2013-08-13 09:15:00,
2013-08-13 02:20:00,55.3,50.5,29.97,WNW,298,0.0,0.0,84,0.00,,,0.00,Wunderground v.1.15,2013-08-13 09:20:00,
2013-08-13 02:30:00,55.0,50.6,29.97,WNW,298,0.0,0.0,85,0.00,,,0.00,Wunderground v.1.15,2013-08-13 09:30:00,
2013-08-13 02:35:00,55.0,50.9,29.97,WNW,298,0.0,0.0,86,0.00,,,0.00,Wunderground v.1.15,2013-08-13 09:35:00,
2013-08-13 02:40:00,55.0,50.9,29.97,WNW,298,0.0,0.0,86,0.00,,,0.00,Wunderground v.1.15,2013-08-13 09:40:00,
2013-08-13 02:45:00,54.9,50.8,29.97,WNW,298,0.0,0.0,86,0.00,,,0.00,Wunderground v.1.15,2013-08-13 09:45:00,
2013-08-13 02:55:00,54.6,50.8,29.97,WNW,298,0.0,0.0,87,0.00,,,0.00,Wunderground v.1.15,2013-08-13 09:55:00,
2013-08-13 03:00:00,54.5,50.7,29.97,WNW,298,0.0,0.0,87,0.00,,,0.00,Wunderground v.1.15,2013-08-13 10:00:00,
2013-08-13 03:05:00,54.4,50.6,29.97,WNW,298,0.0,0.0,87,0.00,,,0.00,Wunderground v.1.15,2013-08-13 10:05:00,
2013-08-13 03:15:00,54.1,50.6,29.97,WNW,298,0.0,0.0,88,0.00,,,0.00,Wunderground v.1.15,2013-08-13 10:15:00,
2013-08-13 03:20:00,54.2,51.0,29.97,WNW,298,0.0,0.0,89,0.00,,,0.00,Wunderground v.1.15,2013-08-13 10:20:00,
2013-08-13 03:25:00,54.3,51.1,29.97,WNW,298,0.0,0.0,89,0.00,,,0.00,Wunderground v.1.15,2013-08-13 10:25:00,
2013-08-13 03:30:00,54.3,51.1,29.97,WNW,298,0.0,0.0,89,0.00,,,0.00,Wunderground v.1.15,2013-08-13 10:30:00,
2013-08-13 03:35:00,54.3,51.1,29.97,WNW,298,0.0,0.0,89,0.00,,,0.00,Wunderground v.1.15,2013-08-13 10:35:00,
2013-08-13 03:40:00,54.3,51.1,29.97,WNW,298,0.0,0.0,89,0.00,,,0.00,Wunderground v.1.15,2013-08-13 10:40:00,
2013-08-13 03:45:00,54.3,51.1,29.97,WNW,298,0.0,0.0,89,0.00,,,0.00,Wunderground v.1.15,2013-08-13 10:45:00,
2013-08-13 03:55:00,54.1,50.9,29.96,NNW,330,0.0,0.0,89,0.00,,,0.00,Wunderground v.1.15,2013-08-13 10:55:00,
2013-08-13 04:00:00,54.2,51.3,29.96,NNW,348,0.0,0.0,90,0.00,,,0.00,Wunderground v.1.15,2013-08-13 11:00:00,
2013-08-13 04:05:00,54.2,51.3,29.96,NNW,348,0.0,0.0,90,0.00,,,0.00,Wunderground v.1.15,2013-08-13 11:05:00,
2013-08-13 04:10:00,54.3,51.4,29.96,NNW,348,0.0,0.0,90,0.00,,,0.00,Wunderground v.1.15,2013-08-13 11:10:00,
2013-08-13 04:15:00,54.3,51.4,29.96,NNW,348,0.0,0.0,90,0.00,,,0.00,Wunderground v.1.15,2013-08-13 11:15:00,
2013-08-13 04:25:00,54.0,50.8,29.96,NNW,348,0.0,0.0,89,0.00,,,0.00,Wunderground v.1.15,2013-08-13 11:25:00,
2013-08-13 04:30:00,53.8,50.9,29.96,NNW,348,0.0,0.0,90,0.00,,,0.00,Wunderground v.1.15,2013-08-13 11:30:00,
2013-08-13 04:35:00,53.7,51.1,29.96,NNW,348,0.0,0.0,91,0.00,,,0.00,Wunderground v.1.15,2013-08-13 11:35:00,
2013-08-13 04:40:00,53.6,51.0,29.96,NNW,348,0.0,0.0,91,0.00,,,0.00,Wunderground v.1.15,2013-08-13 11:40:00,
2013-08-13 04:50:00,53.4,50.8,29.96,NNW,348,0.0,0.0,91,0.00,,,0.00,Wunderground v.1.15,2013-08-13 11:50:00,
2013-08-13 04:55:00,53.4,51.1,29.96,NNW,348,0.0,0.0,92,0.00,,,0.00,Wunderground v.1.15,2013-08-13 11:55:00,
2013-08-13 05:05:00,53.6,51.3,29.96,NNW,348,0.0,0.0,92,0.00,,,0.00,Wunderground v.1.15,2013-08-13 12:05:00,
2013-08-13 05:15:00,53.6,51.3,29.96,NNW,348,0.0,0.0,92,0.00,,,0.00,Wunderground v.1.15,2013-08-13 12:15:00,
2013-08-13 05:20:00,53.5,51.2,29.96,NNW,348,0.0,0.0,92,0.00,,,0.00,Wunderground v.1.15,2013-08-13 12:20:00,
2013-08-13 05:30:00,53.6,51.3,29.96,NNW,348,0.0,0.0,92,0.00,,,0.00,Wunderground v.1.15,2013-08-13 12:30:00,
2013-08-13 05:35:00,53.6,51.3,29.96,NNW,348,0.0,0.0,92,0.00,,,0.00,Wunderground v.1.15,2013-08-13 12:35:00,
2013-08-13 05:40:00,53.6,51.3,29.96,NNW,348,0.0,0.0,92,0.00,,,0.00,Wunderground v.1.15,2013-08-13 12:40:00,
2013-08-13 05:45:00,53.5,51.2,29.96,NNW,348,0.0,0.0,92,0.00,,,0.00,Wunderground v.1.15,2013-08-13 12:45:00,
2013-08-13 05:55:00,53.2,50.6,29.97,NNW,348,0.0,0.0,91,0.00,,,0.00,Wunderground v.1.15,2013-08-13 12:55:00,
2013-08-13 06:00:00,53.2,51.2,29.97,NNW,348,0.0,0.0,93,0.00,,,0.00,Wunderground v.1.15,2013-08-13 13:00:00,
2013-08-13 06:05:00,53.2,50.9,29.97,NNW,348,0.0,0.0,92,0.00,,,0.00,Wunderground v.1.15,2013-08-13 13:05:00,
2013-08-13 06:15:00,53.1,50.8,29.97,NNW,348,0.0,0.0,92,0.00,,,0.00,Wunderground v.1.15,2013-08-13 13:15:00,
2013-08-13 06:20:00,53.1,50.8,29.97,NNW,348,0.0,0.0,92,0.00,,,0.00,Wunderground v.1.15,2013-08-13 13:20:00,
2013-08-13 06:25:00,53.2,50.9,29.97,NNW,348,0.0,0.0,92,0.00,,,0.00,Wunderground v.1.15,2013-08-13 13:25:00,
2013-08-13 06:30:00,53.5,51.2,29.97,NNW,348,0.0,0.0,92,0.00,,,0.00,Wunderground v.1.15,2013-08-13 13:30:00,
2013-08-13 06:40:00,54.0,51.7,29.97,NNW,348,0.0,0.0,92,0.00,,,0.00,Wunderground v.1.15,2013-08-13 13:40:00,
2013-08-13 06:45:00,54.3,51.7,29.97,NNW,348,0.0,0.0,91,0.00,,,0.00,Wunderground v.1.15,2013-08-13 13:45:00,
2013-08-13 06:50:00,54.5,51.6,29.97,NNW,348,0.0,0.0,90,0.00,,,0.00,Wunderground v.1.15,2013-08-13 13:50:00,
2013-08-13 07:00:00,54.9,51.7,29.97,NNW,348,0.0,0.0,89,0.00,,,0.00,Wunderground v.1.15,2013-08-13 14:00:00,
2013-08-13 07:05:00,55.6,52.1,29.97,NNW,347,0.0,0.0,88,0.00,,,0.00,Wunderground v.1.15,2013-08-13 14:05:00,
2013-08-13 07:10:00,55.9,52.1,29.98,NNW,347,0.0,0.0,87,0.00,,,0.00,Wunderground v.1.15,2013-08-13 14:10:00,
2013-08-13 07:15:00,56.0,52.2,29.98,NNW,347,0.0,0.0,87,0.00,,,0.00,Wunderground v.1.15,2013-08-13 14:15:00,
2013-08-13 07:25:00,56.2,52.1,29.98,NNW,347,0.0,1.0,86,0.00,,,0.00,Wunderground v.1.15,2013-08-13 14:25:00,
2013-08-13 07:30:00,56.3,52.2,29.98,NNW,347,0.0,0.0,86,0.00,,,0.00,Wunderground v.1.15,2013-08-13 14:30:00,
2013-08-13 07:40:00,57.2,52.4,29.98,NNW,346,0.0,0.0,84,0.00,,,0.00,Wunderground v.1.15,2013-08-13 14:40:00,
2013-08-13 07:45:00,57.6,52.5,29.98,NNW,346,0.0,0.0,83,0.00,,,0.00,Wunderground v.1.15,2013-08-13 14:45:00,
2013-08-13 07:55:00,58.3,53.2,29.99,NNW,346,0.0,0.0,83,0.00,,,0.00,Wunderground v.1.15,2013-08-13 14:55:00,
2013-08-13 08:05:00,59.1,53.6,29.99,NNW,346,0.0,0.0,82,0.00,,,0.00,Wunderground v.1.15,2013-08-13 15:05:00,
2013-08-13 08:10:00,59.5,53.7,29.99,NNW,346,0.0,0.0,81,0.00,,,0.00,Wunderground v.1.15,2013-08-13 15:10:00,
2013-08-13 08:15:00,59.9,53.7,29.99,NNW,346,0.0,0.0,80,0.00,,,0.00,Wunderground v.1.15,2013-08-13 15:15:00,
2013-08-13 08:20:00,60.4,54.2,29.99,NNW,346,0.0,0.0,80,0.00,,,0.00,Wunderground v.1.15,2013-08-13 15:20:00,
2013-08-13 08:25:00,60.8,54.2,29.99,NNW,346,0.0,0.0,79,0.00,,,0.00,Wunderground v.1.15,2013-08-13 15:25:00,
2013-08-13 08:30:00,61.4,54.8,29.99,NW,315,0.0,0.0,79,0.00,,,0.00,Wunderground v.1.15,2013-08-13 15:30:00,
2013-08-13 08:35:00,61.9,55.0,29.99,NW,315,0.0,0.0,78,0.00,,,0.00,Wunderground v.1.15,2013-08-13 15:35:00,
2013-08-13 08:40:00,62.4,55.1,29.99,NW,315,0.0,0.0,77,0.00,,,0.00,Wunderground v.1.15,2013-08-13 15:40:00,
2013-08-13 08:50:00,63.4,55.3,30.00,NW,315,0.0,0.0,75,0.00,,,0.00,Wunderground v.1.15,2013-08-13 15:50:00,
2013-08-13 08:55:00,64.0,55.5,29.99,NW,315,0.0,0.0,74,0.00,,,0.00,Wunderground v.1.15,2013-08-13 15:55:00,
2013-08-13 09:00:00,64.6,56.1,30.00,NW,315,0.0,0.0,74,0.00,,,0.00,Wunderground v.1.15,2013-08-13 16:00:00,
2013-08-13 09:05:00,65.2,55.6,29.99,NW,315,0.0,0.0,71,0.00,,,0.00,Wunderground v.1.15,2013-08-13 16:05:00,
2013-08-13 09:10:00,66.0,56.3,29.99,NW,315,0.0,0.0,71,0.00,,,0.00,Wunderground v.1.15,2013-08-13 16:10:00,
2013-08-13 09:15:00,66.8,56.3,29.99,SSE,161,0.0,0.0,69,0.00,,,0.00,Wunderground v.1.15,2013-08-13 16:15:00,
2013-08-13 09:25:00,68.4,55.7,29.99,WSW,237,0.0,0.0,64,0.00,,,0.00,Wunderground v.1.15,2013-08-13 16:25:00,
2013-08-13 09:30:00,69.0,55.9,29.99,WSW,245,0.0,1.0,63,0.00,,,0.00,Wunderground v.1.15,2013-08-13 16:30:00,
2013-08-13 09:35:00,69.6,55.6,29.99,West,259,0.0,1.0,61,0.00,,,0.00,Wunderground v.1.15,2013-08-13 16:35:00,
2013-08-13 09:45:00,71.1,56.0,29.99,SSE,167,0.0,0.0,59,0.00,,,0.00,Wunderground v.1.15,2013-08-13 16:45:00,
2013-08-13 09:50:00,72.3,56.7,29.99,South,182,0.0,1.0,58,0.00,,,0.00,Wunderground v.1.15,2013-08-13 16:50:00,
2013-08-13 09:55:00,73.1,56.5,29.99,South,169,0.0,1.0,56,0.00,,,0.00,Wunderground v.1.15,2013-08-13 16:55:00,
2013-08-13 10:00:00,73.8,56.6,29.99,SSE,156,0.0,0.0,55,0.00,,,0.00,Wunderground v.1.15,2013-08-13 17:00:00,
2013-08-13 10:15:00,75.4,57.1,29.99,SE,144,0.0,0.0,53,0.00,,,0.00,Wunderground v.1.15,2013-08-13 17:15:00,
2013-08-13 10:20:00,76.4,56.9,29.99,SSW,203,0.0,0.0,51,0.00,,,0.00,Wunderground v.1.15,2013-08-13 17:20:00,
2013-08-13 10:25:00,76.8,56.2,29.99,SSW,201,0.0,0.0,49,0.00,,,0.00,Wunderground v.1.15,2013-08-13 17:25:00,
2013-08-13 10:30:00,77.4,57.3,29.99,South,175,0.0,0.0,50,0.00,,,0.00,Wunderground v.1.15,2013-08-13 17:30:00,
2013-08-13 10:35:00,78.0,55.5,29.98,SSE,148,1.0,1.0,46,0.00,,,0.00,Wunderground v.1.15,2013-08-13 17:35:00,
2013-08-13 10:45:00,78.1,55.0,29.98,SE,143,0.0,2.0,45,0.00,,,0.00,Wunderground v.1.15,2013-08-13 17:45:00,
2013-08-13 10:50:00,78.4,54.0,29.98,SSE,147,1.0,1.0,43,0.00,,,0.00,Wunderground v.1.15,2013-08-13 17:50:00,
2013-08-13 10:55:00,78.9,54.5,29.98,SSE,147,1.0,1.0,43,0.00,,,0.00,Wunderground v.1.15,2013-08-13 17:55:00,
2013-08-13 11:00:00,79.3,54.9,29.98,SSE,158,1.0,1.0,43,0.00,,,0.00,Wunderground v.1.15,2013-08-13 18:00:00,
2013-08-13 11:05:00,79.5,55.7,29.98,SSE,161,0.0,1.0,44,0.00,,,0.00,Wunderground v.1.15,2013-08-13 18:05:00,
2013-08-13 11:10:00,80.0,56.7,29.98,WSW,256,0.0,0.0,45,0.00,,,0.00,Wunderground v.1.15,2013-08-13 18:10:00,
2013-08-13 11:20:00,81.7,55.0,29.98,SSE,153,0.0,0.0,40,0.00,,,0.00,Wunderground v.1.15,2013-08-13 18:20:00,
2013-08-13 11:25:00,81.7,55.7,29.98,South,169,1.0,1.0,41,0.00,,,0.00,Wunderground v.1.15,2013-08-13 18:25:00,
2013-08-13 11:30:00,82.2,54.8,29.98,SE,142,1.0,1.0,39,0.00,,,0.00,Wunderground v.1.15,2013-08-13 18:30:00,
2013-08-13 11:35:00,81.4,54.8,29.98,SSE,153,1.0,1.0,40,0.00,,,0.00,Wunderground v.1.15,2013-08-13 18:35:00,
2013-08-13 11:45:00,82.4,55.7,29.98,SE,145,1.0,1.0,40,0.00,,,0.00,Wunderground v.1.15,2013-08-13 18:45:00,
2013-08-13 11:50:00,82.3,56.2,29.97,SE,132,1.0,1.0,41,0.00,,,0.00,Wunderground v.1.15,2013-08-13 18:50:00,
2013-08-13 12:00:00,82.1,55.4,29.98,East,82,2.0,2.0,40,0.00,,,0.00,Wunderground v.1.15,2013-08-13 19:00:00,
2013-08-13 12:10:00,82.2,56.2,29.97,SSE,163,1.0,3.0,41,0.00,,,0.00,Wunderground v.1.15,2013-08-13 19:10:00,
2013-08-13 12:15:00,82.5,55.0,29.97,South,171,1.0,5.0,39,0.00,,,0.00,Wunderground v.1.15,2013-08-13 19:15:00,
2013-08-13 12:25:00,82.4,55.7,29.97,SSE,148,2.0,2.0,40,0.00,,,0.00,Wunderground v.1.15,2013-08-13 19:25:00,
2013-08-13 12:30:00,83.2,55.7,29.97,SE,137,2.0,2.0,39,0.00,,,0.00,Wunderground v.1.15,2013-08-13 19:30:00,
2013-08-13 12:35:00,84.1,55.7,29.97,SE,138,1.0,2.0,38,0.00,,,0.00,Wunderground v.1.15,2013-08-13 19:35:00,
2013-08-13 12:40:00,84.4,56.0,29.97,SE,138,1.0,1.0,38,0.00,,,0.00,Wunderground v.1.15,2013-08-13 19:40:00,
2013-08-13 12:50:00,84.8,55.6,29.96,SSE,153,1.0,2.0,37,0.00,,,0.00,Wunderground v.1.15,2013-08-13 19:50:00,
2013-08-13 12:55:00,84.7,58.4,29.96,SSE,151,2.0,2.0,41,0.00,,,0.00,Wunderground v.1.15,2013-08-13 19:55:00,
2013-08-13 13:00:00,84.7,55.5,29.96,SE,139,2.0,2.0,37,0.00,,,0.00,Wunderground v.1.15,2013-08-13 20:00:00,
2013-08-13 13:05:00,85.0,58.0,29.96,South,172,2.0,2.0,40,0.00,,,0.00,Wunderground v.1.15,2013-08-13 20:05:00,
2013-08-13 13:10:00,85.3,55.3,29.96,SE,140,1.0,2.0,36,0.00,,,0.00,Wunderground v.1.15,2013-08-13 20:10:00,
2013-08-13 13:15:00,86.2,53.7,29.96,SE,140,1.0,3.0,33,0.00,,,0.00,Wunderground v.1.15,2013-08-13 20:15:00,
2013-08-13 13:20:00,86.3,54.6,29.96,SE,143,1.0,1.0,34,0.00,,,0.00,Wunderground v.1.15,2013-08-13 20:20:00,
2013-08-13 13:30:00,86.4,53.1,29.95,SE,146,1.0,2.0,32,0.00,,,0.00,Wunderground v.1.15,2013-08-13 20:30:00,
2013-08-13 13:35:00,86.3,53.0,29.95,SE,135,1.0,2.0,32,0.00,,,0.00,Wunderground v.1.15,2013-08-13 20:35:00,
2013-08-13 13:40:00,86.3,52.1,29.95,SE,139,1.0,1.0,31,0.00,,,0.00,Wunderground v.1.15,2013-08-13 20:40:00,
2013-08-13 13:45:00,86.3,52.1,29.95,SE,142,1.0,2.0,31,0.00,,,0.00,Wunderground v.1.15,2013-08-13 20:45:00,
2013-08-13 13:50:00,86.3,53.0,29.95,SSE,167,2.0,2.0,32,0.00,,,0.00,Wunderground v.1.15,2013-08-13 20:50:00,
2013-08-13 14:00:00,87.0,54.4,29.95,SSE,156,1.0,1.0,33,0.00,,,0.00,Wunderground v.1.15,2013-08-13 21:00:00,
2013-08-13 14:05:00,87.6,57.3,29.95,SSE,151,1.0,3.0,36,0.00,,,0.00,Wunderground v.1.15,2013-08-13 21:05:00,
2013-08-13 14:10:00,88.2,57.1,29.94,NW,318,1.0,1.0,35,0.00,,,0.00,Wunderground v.1.15,2013-08-13 21:10:00,
2013-08-13 14:15:00,88.1,56.2,29.94,West,263,2.0,5.0,34,0.00,,,0.00,Wunderground v.1.15,2013-08-13 21:15:00,
2013-08-13 14:25:00,89.5,56.6,29.94,SSE,168,1.0,2.0,33,0.00,,,0.00,Wunderground v.1.15,2013-08-13 21:25:00,
2013-08-13 14:30:00,90.5,57.5,29.94,WNW,284,1.0,1.0,33,0.00,,,0.00,Wunderground v.1.15,2013-08-13 21:30:00,
2013-08-13 14:35:00,90.9,57.0,29.94,WSW,250,1.0,2.0,32,0.00,,,0.00,Wunderground v.1.15,2013-08-13 21:35:00,
2013-08-13 14:40:00,91.0,57.0,29.94,NW,317,1.0,1.0,32,0.00,,,0.00,Wunderground v.1.15,2013-08-13 21:40:00,
2013-08-13 14:45:00,89.9,56.1,29.94,WNW,301,3.0,3.0,32,0.00,,,0.00,Wunderground v.1.15,2013-08-13 21:45:00,
2013-08-13 14:50:00,88.5,56.6,29.94,NW,309,4.0,7.0,34,0.00,,,0.00,Wunderground v.1.15,2013-08-13 21:50:00,
2013-08-13 14:55:00,88.0,56.1,29.94,NW,313,4.0,7.0,34,0.00,,,0.00,Wunderground v.1.15,2013-08-13 21:55:00,
2013-08-13 15:00:00,88.1,55.4,29.93,WNW,300,3.0,6.0,33,0.00,,,0.00,Wunderground v.1.15,2013-08-13 22:00:00,
2013-08-13 15:05:00,88.3,55.6,29.93,West,259,3.0,6.0,33,0.00,,,0.00,Wunderground v.1.15,2013-08-13 22:05:00,
2013-08-13 15:15:00,88.7,55.1,29.93,WNW,301,2.0,3.0,32,0.00,,,0.00,Wunderground v.1.15,2013-08-13 22:15:00,
2013-08-13 15:20:00,88.9,54.4,29.93,West,271,2.0,5.0,31,0.00,,,0.00,Wunderground v.1.15,2013-08-13 22:20:00,
2013-08-13 15:25:00,89.6,53.1,29.93,NW,316,2.0,5.0,29,0.00,,,0.00,Wunderground v.1.15,2013-08-13 22:25:00,
2013-08-13 15:30:00,89.4,51.0,29.93,WNW,302,2.0,5.0,27,0.00,,,0.00,Wunderground v.1.15,2013-08-13 22:30:00,
2013-08-13 15:35:00,88.7,50.4,29.92,NW,305,3.0,5.0,27,0.00,,,0.00,Wunderground v.1.15,2013-08-13 22:35:00,
2013-08-13 15:40:00,89.7,49.2,29.92,South,169,2.0,2.0,25,0.00,,,0.00,Wunderground v.1.15,2013-08-13 22:40:00,
2013-08-13 15:50:00,89.7,49.2,29.92,WSW,254,2.0,2.0,25,0.00,,,0.00,Wunderground v.1.15,2013-08-13 22:50:00,
2013-08-13 15:55:00,89.4,50.0,29.92,WNW,292,2.0,2.0,26,0.00,,,0.00,Wunderground v.1.15,2013-08-13 22:55:00,
2013-08-13 16:00:00,89.0,49.7,29.92,WSW,254,3.0,3.0,26,0.00,,,0.00,Wunderground v.1.15,2013-08-13 23:00:00,
2013-08-13 16:05:00,88.5,47.1,29.93,WNW,288,4.0,4.0,24,0.00,,,0.00,Wunderground v.1.15,2013-08-13 23:05:00,
2013-08-13 16:10:00,87.9,45.5,29.92,WSW,252,3.0,3.0,23,0.00,,,0.00,Wunderground v.1.15,2013-08-13 23:10:00,
2013-08-13 16:20:00,88.4,47.0,29.92,SSW,211,2.0,2.0,24,0.00,,,0.00,Wunderground v.1.15,2013-08-13 23:20:00,
2013-08-13 16:25:00,89.3,43.0,29.92,NW,315,2.0,5.0,20,0.00,,,0.00,Wunderground v.1.15,2013-08-13 23:25:00,
2013-08-13 16:30:00,89.3,50.9,29.92,West,259,2.0,2.0,27,0.00,,,0.00,Wunderground v.1.15,2013-08-13 23:30:00,
2013-08-13 16:35:00,89.6,50.2,29.92,ESE,111,2.0,3.0,26,0.00,,,0.00,Wunderground v.1.15,2013-08-13 23:35:00,
2013-08-13 16:45:00,89.4,48.9,29.92,WSW,257,2.0,3.0,25,0.00,,,0.00,Wunderground v.1.15,2013-08-13 23:45:00,
2013-08-13 16:50:00,89.1,51.7,29.92,WSW,257,2.0,2.0,28,0.00,,,0.00,Wunderground v.1.15,2013-08-13 23:50:00,
2013-08-13 16:55:00,89.4,52.0,29.92,WSW,250,1.0,2.0,28,0.00,,,0.00,Wunderground v.1.15,2013-08-13 23:55:00,
2013-08-13 17:00:00,89.2,51.8,29.92,WNW,287,1.0,1.0,28,0.00,,,0.00,Wunderground v.1.15,2013-08-14 00:00:00,
2013-08-13 17:05:00,88.8,52.4,29.92,WNW,294,1.0,1.0,29,0.00,,,0.00,Wunderground v.1.15,2013-08-14 00:05:00,
2013-08-13 17:10:00,88.3,52.0,29.92,WSW,245,1.0,1.0,29,0.00,,,0.00,Wunderground v.1.15,2013-08-14 00:10:00,
2013-08-13 17:20:00,87.8,51.6,29.92,SW,234,1.0,1.0,29,0.00,,,0.00,Wunderground v.1.15,2013-08-14 00:20:00,
2013-08-13 17:25:00,87.2,51.1,29.92,WSW,243,1.0,1.0,29,0.00,,,0.00,Wunderground v.1.15,2013-08-14 00:25:00,
2013-08-13 17:35:00,85.6,50.6,29.92,WSW,253,0.0,2.0,30,0.00,,,0.00,Wunderground v.1.15,2013-08-14 00:35:00,
2013-08-13 17:40:00,84.7,50.7,29.92,WNW,283,1.0,1.0,31,0.00,,,0.00,Wunderground v.1.15,2013-08-14 00:40:00,
2013-08-13 17:45:00,84.3,50.4,29.92,NW,319,1.0,1.0,31,0.00,,,0.00,Wunderground v.1.15,2013-08-14 00:45:00,
2013-08-13 17:50:00,84.2,50.3,29.92,WNW,303,0.0,0.0,31,0.00,,,0.00,Wunderground v.1.15,2013-08-14 00:50:00,
2013-08-13 18:00:00,83.8,50.8,29.92,West,259,0.0,0.0,32,0.00,,,0.00,Wunderground v.1.15,2013-08-14 01:00:00,
2013-08-13 18:05:00,83.5,51.4,29.92,West,259,0.0,0.0,33,0.00,,,0.00,Wunderground v.1.15,2013-08-14 01:05:00,
2013-08-13 18:10:00,82.8,51.6,29.92,West,277,0.0,1.0,34,0.00,,,0.00,Wunderground v.1.15,2013-08-14 01:10:00,
2013-08-13 18:20:00,82.0,51.6,29.91,West,275,0.0,0.0,35,0.00,,,0.00,Wunderground v.1.15,2013-08-14 01:20:00,
2013-08-13 18:25:00,81.6,52.1,29.91,West,273,0.0,1.0,36,0.00,,,0.00,Wunderground v.1.15,2013-08-14 01:25:00,
2013-08-13 18:30:00,81.2,51.7,29.91,WNW,290,0.0,1.0,36,0.00,,,0.00,Wunderground v.1.15,2013-08-14 01:30:00,
2013-08-13 18:40:00,81.2,52.4,29.91,North,5,1.0,1.0,37,0.00,,,0.00,Wunderground v.1.15,2013-08-14 01:40:00,
2013-08-13 18:45:00,81.1,52.4,29.91,NNW,338,0.0,1.0,37,0.00,,,0.00,Wunderground v.1.15,2013-08-14 01:45:00,
2013-08-13 18:50:00,81.0,53.0,29.91,West,275,0.0,0.0,38,0.00,,,0.00,Wunderground v.1.15,2013-08-14 01:50:00,
2013-08-13 19:00:00,80.6,52.6,29.91,NW,321,0.0,0.0,38,0.00,,,0.00,Wunderground v.1.15,2013-08-14 02:00:00,
2013-08-13 19:05:00,79.8,52.6,29.91,NW,313,0.0,4.0,39,0.00,,,0.00,Wunderground v.1.15,2013-08-14 02:05:00,
2013-08-13 19:10:00,78.9,52.5,29.91,WNW,286,0.0,0.0,40,0.00,,,0.00,Wunderground v.1.15,2013-08-14 02:10:00,
2013-08-13 19:20:00,77.8,50.2,29.91,West,262,0.0,0.0,38,0.00,,,0.00,Wunderground v.1.15,2013-08-14 02:20:00,
2013-08-13 19:25:00,77.4,49.8,29.91,East,98,0.0,0.0,38,0.00,,,0.00,Wunderground v.1.15,2013-08-14 02:25:00,
2013-08-13 19:30:00,77.0,50.1,29.91,West,269,0.0,0.0,39,0.00,,,0.00,Wunderground v.1.15,2013-08-14 02:30:00,
2013-08-13 19:35:00,76.7,49.2,29.91,NW,319,0.0,0.0,38,0.00,,,0.00,Wunderground v.1.15,2013-08-14 02:35:00,
2013-08-13 19:45:00,76.1,49.3,29.91,WNW,287,0.0,0.0,39,0.00,,,0.00,Wunderground v.1.15,2013-08-14 02:45:00,
2013-08-13 19:50:00,75.7,49.0,29.91,WNW,301,0.0,0.0,39,0.00,,,0.00,Wunderground v.1.15,2013-08-14 02:50:00,
2013-08-13 20:00:00,74.9,48.9,29.92,WNW,300,0.0,0.0,40,0.00,,,0.00,Wunderground v.1.15,2013-08-14 03:00:00,
2013-08-13 20:05:00,74.4,49.8,29.92,WNW,300,0.0,0.0,42,0.00,,,0.00,Wunderground v.1.15,2013-08-14 03:05:00,
2013-08-13 20:10:00,73.8,50.5,29.92,NW,315,0.0,0.0,44,0.00,,,0.00,Wunderground v.1.15,2013-08-14 03:10:00,
2013-08-13 20:20:00,72.3,50.9,29.92,NW,315,0.0,0.0,47,0.00,,,0.00,Wunderground v.1.15,2013-08-14 03:20:00,
2013-08-13 20:25:00,71.6,51.4,29.92,NW,317,0.0,0.0,49,0.00,,,0.00,Wunderground v.1.15,2013-08-14 03:25:00,
2013-08-13 20:30:00,71.0,50.9,29.92,NW,317,0.0,0.0,49,0.00,,,0.00,Wunderground v.1.15,2013-08-14 03:30:00,
2013-08-13 20:35:00,70.4,50.9,29.92,NW,317,0.0,0.0,50,0.00,,,0.00,Wunderground v.1.15,2013-08-14 03:35:00,
2013-08-13 20:45:00,69.6,50.1,29.92,NW,317,0.0,0.0,50,0.00,,,0.00,Wunderground v.1.15,2013-08-14 03:45:00,
2013-08-13 20:50:00,69.4,49.4,29.92,NW,317,0.0,0.0,49,0.00,,,0.00,Wunderground v.1.15,2013-08-14 03:50:00,
2013-08-13 20:55:00,69.2,48.7,29.92,NW,317,0.0,0.0,48,0.00,,,0.00,Wunderground v.1.15,2013-08-14 03:55:00,
2013-08-13 21:05:00,68.9,47.8,29.92,NW,317,0.0,0.0,47,0.00,,,0.00,Wunderground v.1.15,2013-08-14 04:05:00,
2013-08-13 21:10:00,68.8,47.2,29.92,NW,317,0.0,0.0,46,0.00,,,0.00,Wunderground v.1.15,2013-08-14 04:10:00,
2013-08-13 21:15:00,68.8,46.6,29.93,NW,317,0.0,0.0,45,0.00,,,0.00,Wunderground v.1.15,2013-08-14 04:15:00,
2013-08-13 21:20:00,68.6,46.4,29.93,NW,317,0.0,0.0,45,0.00,,,0.00,Wunderground v.1.15,2013-08-14 04:20:00,
2013-08-13 21:25:00,68.3,46.7,29.93,NW,317,0.0,0.0,46,0.00,,,0.00,Wunderground v.1.15,2013-08-14 04:25:00,
2013-08-13 21:35:00,68.3,46.7,29.93,NW,317,0.0,0.0,46,0.00,,,0.00,Wunderground v.1.15,2013-08-14 04:35:00,
2013-08-13 21:40:00,68.1,46.5,29.93,NW,317,0.0,0.0,46,0.00,,,0.00,Wunderground v.1.15,2013-08-14 04:40:00,
2013-08-13 21:50:00,67.5,47.1,29.93,NW,317,0.0,0.0,48,0.00,,,0.00,Wunderground v.1.15,2013-08-14 04:50:00,
2013-08-13 21:55:00,67.2,47.4,29.93,NW,317,0.0,0.0,49,0.00,,,0.00,Wunderground v.1.15,2013-08-14 04:55:00,
2013-08-13 22:00:00,66.9,47.6,29.93,NW,317,0.0,0.0,50,0.00,,,0.00,Wunderground v.1.15,2013-08-14 05:00:00,
2013-08-13 22:05:00,66.4,47.7,29.93,NW,317,0.0,0.0,51,0.00,,,0.00,Wunderground v.1.15,2013-08-14 05:05:00,
2013-08-13 22:15:00,65.5,48.4,29.94,NW,317,0.0,0.0,54,0.00,,,0.00,Wunderground v.1.15,2013-08-14 05:15:00,
2013-08-13 22:20:00,65.0,48.4,29.94,NW,317,0.0,0.0,55,0.00,,,0.00,Wunderground v.1.15,2013-08-14 05:20:00,
2013-08-13 22:25:00,64.6,48.5,29.94,NW,317,0.0,0.0,56,0.00,,,0.00,Wunderground v.1.15,2013-08-14 05:25:00,
2013-08-13 22:30:00,64.3,50.6,29.94,NW,317,0.0,0.0,61,0.00,,,0.00,Wunderground v.1.15,2013-08-14 05:30:00,
2013-08-13 22:35:00,63.9,50.2,29.94,NW,317,0.0,0.0,61,0.00,,,0.00,Wunderground v.1.15,2013-08-14 05:35:00,
2013-08-13 22:45:00,63.4,51.0,29.94,NW,317,0.0,0.0,64,0.00,,,0.00,Wunderground v.1.15,2013-08-14 05:45:00,
2013-08-13 22:55:00,62.5,51.4,29.95,NW,317,0.0,0.0,67,0.00,,,0.00,Wunderground v.1.15,2013-08-14 05:55:00,
2013-08-13 23:00:00,62.0,51.7,29.95,NW,317,0.0,0.0,69,0.00,,,0.00,Wunderground v.1.15,2013-08-14 06:00:00,
2013-08-13 23:05:00,61.6,51.7,29.95,NW,319,0.0,0.0,70,0.00,,,0.00,Wunderground v.1.15,2013-08-14 06:05:00,
2013-08-13 23:15:00,60.8,51.7,29.95,NNW,336,0.0,0.0,72,0.00,,,0.00,Wunderground v.1.15,2013-08-14 06:15:00,
2013-08-13 23:20:00,60.5,51.8,29.95,NNW,336,0.0,0.0,73,0.00,,,0.00,Wunderground v.1.15,2013-08-14 06:20:00,
2013-08-13 23:25:00,60.2,51.9,29.95,NNW,336,0.0,1.0,74,0.00,,,0.00,Wunderground v.1.15,2013-08-14 06:25:00,
2013-08-13 23:30:00,60.0,52.1,29.95,NNW,336,0.0,0.0,75,0.00,,,0.00,Wunderground v.1.15,2013-08-14 06:30:00,
2013-08-13 23:40:00,59.5,51.6,29.95,NNW,336,0.0,0.0,75,0.00,,,0.00,Wunderground v.1.15,2013-08-14 06:40:00,
2013-08-13 23:45:00,59.1,51.2,29.95,NNW,336,0.0,0.0,75,0.00,,,0.00,Wunderground v.1.15,2013-08-14 06:45:00,
2013-08-13 23:55:00,58.7,51.5,29.95,NNW,336,0.0,0.0,77,0.00,,,0.00,Wunderground v.1.15,2013-08-14 06:55:00,